TimeEST,TemperatureF,Dew PointF,Humidity,Sea Level PressureIn,VisibilityMPH,Wind Direction,Wind SpeedMPH,Gust SpeedMPH,PrecipitationIn,Events,Conditions,WindDirDegrees,DateUTC
12:54 AM,26.1,18.0,71,29.90,10.0,West,13.8,28.8,N/A,,Overcast,280,2012-11-24 05:54:00
1:54 AM,25.0,19.0,78,29.91,3.0,West,13.8,24.2,0.00,Snow,Light Snow,270,2012-11-24 06:54:00
2:36 AM,24.8,19.4,80,29.85,2.5,West,13.8,23.0,0.00,Snow,Light Snow,270,2012-11-24 07:36:00
2:54 AM,24.1,19.0,81,29.91,5.0,West,17.3,24.2,0.00,Snow,Light Snow,270,2012-11-24 07:54:00
3:16 AM,24.8,19.4,80,29.84,2.5,West,18.4,25.3,0.00,Snow,Light Snow,270,2012-11-24 08:16:00
3:21 AM,24.8,19.4,80,29.84,3.0,West,19.6,25.3,0.00,Snow,Light Snow,270,2012-11-24 08:21:00
3:33 AM,23.0,19.4,86,29.84,1.8,West,20.7,27.6,0.00,Snow,Light Snow,270,2012-11-24 08:33:00
3:45 AM,23.0,19.4,86,29.85,3.0,West,16.1,25.3,0.00,Snow,Light Snow,270,2012-11-24 08:45:00
3:54 AM,23.0,19.9,88,29.91,4.0,West,19.6,26.5,0.00,Snow,Light Snow,270,2012-11-24 08:54:00
4:43 AM,24.8,19.4,80,29.85,6.0,West,21.9,32.2,0.00,Snow,Light Snow,280,2012-11-24 09:43:00
4:54 AM,24.1,19.9,84,29.91,5.0,West,20.7,32.2,0.00,Snow,Light Snow,280,2012-11-24 09:54:00
5:17 AM,24.8,19.4,80,29.85,7.0,West,19.6,26.5,0.00,Snow,Light Snow,280,2012-11-24 10:17:00
5:54 AM,24.1,19.9,84,29.93,8.0,West,17.3,25.3,0.00,Snow,Light Snow,280,2012-11-24 10:54:00
6:54 AM,24.1,19.9,84,29.93,4.0,West,16.1,26.5,0.00,Snow,Light Snow,280,2012-11-24 11:54:00
7:20 AM,24.8,19.4,80,29.87,4.0,West,18.4,29.9,0.00,Snow,Light Snow,280,2012-11-24 12:20:00
7:40 AM,24.8,19.4,80,29.87,1.8,West,17.3,27.6,0.00,Snow,Light Snow,280,2012-11-24 12:40:00
7:54 AM,24.1,19.9,84,29.95,1.8,West,21.9,27.6,0.00,Snow,Light Snow,280,2012-11-24 12:54:00
7:59 AM,24.8,19.4,80,29.88,2.0,West,20.7,31.1,0.00,Snow,Light Snow,280,2012-11-24 12:59:00
8:05 AM,24.8,19.4,80,29.88,3.0,West,20.7,31.1,0.00,Snow,Light Snow,270,2012-11-24 13:05:00
8:13 AM,24.8,19.4,80,29.88,3.0,West,19.6,32.2,0.00,Snow,Light Snow,270,2012-11-24 13:13:00
8:29 AM,24.8,19.4,80,29.89,2.0,West,21.9,34.5,0.00,Snow,Light Snow,280,2012-11-24 13:29:00
8:39 AM,24.8,21.2,86,29.89,2.0,West,21.9,32.2,0.00,Snow,Light Snow,280,2012-11-24 13:39:00
8:49 AM,24.8,21.2,86,29.89,1.8,West,21.9,29.9,0.00,Snow,Light Snow,270,2012-11-24 13:49:00
8:54 AM,24.1,19.9,84,29.97,1.8,West,23.0,31.1,0.00,Snow,Light Snow,280,2012-11-24 13:54:00
9:12 AM,24.8,21.2,86,29.89,2.0,West,19.6,27.6,0.00,Snow,Light Snow,280,2012-11-24 14:12:00
9:54 AM,24.1,21.0,88,29.98,2.5,West,17.3,25.3,0.00,Snow,Light Snow,270,2012-11-24 14:54:00
10:05 AM,24.8,21.2,86,29.90,1.8,West,16.1,26.5,0.00,Snow,Light Snow,280,2012-11-24 15:05:00
10:12 AM,24.8,21.2,86,29.90,2.5,West,15.0,27.6,0.00,Snow,Light Snow,270,2012-11-24 15:12:00
10:22 AM,24.8,21.2,86,29.90,5.0,West,20.7,25.3,0.00,Snow,Light Snow,280,2012-11-24 15:22:00
10:54 AM,25.0,21.0,85,29.99,3.0,West,16.1,32.2,0.00,Snow,Light Snow,280,2012-11-24 15:54:00
11:05 AM,24.8,21.2,86,29.90,1.8,West,18.4,29.9,0.00,Snow,Light Snow,280,2012-11-24 16:05:00
11:15 AM,24.8,21.2,86,29.90,1.8,West,19.6,31.1,0.00,Snow,Light Snow,280,2012-11-24 16:15:00
11:54 AM,25.0,21.9,88,29.97,1.2,West,12.7,20.7,0.00,Snow,Light Snow,280,2012-11-24 16:54:00
12:25 PM,24.8,21.2,86,29.87,3.0,West,13.8,25.3,0.00,Snow,Light Snow,280,2012-11-24 17:25:00
12:43 PM,24.8,21.2,86,29.88,2.5,West,17.3,25.3,0.00,Snow,Light Snow,280,2012-11-24 17:43:00
12:54 PM,25.0,21.9,88,29.96,1.0,West,13.8,25.3,0.00,Snow,Light Snow,270,2012-11-24 17:54:00
1:13 PM,24.8,21.2,86,29.88,3.0,West,15.0,28.8,0.00,Snow,Light Snow,280,2012-11-24 18:13:00
1:27 PM,26.6,21.2,80,29.88,10.0,WNW,16.1,23.0,0.00,,Overcast,290,2012-11-24 18:27:00
1:51 PM,24.8,21.2,86,29.88,1.5,West,17.3,25.3,0.00,Snow,Light Snow,270,2012-11-24 18:51:00
1:54 PM,25.0,21.0,85,29.96,1.0,West,18.4,25.3,0.00,Snow,Light Snow,280,2012-11-24 18:54:00
2:17 PM,26.6,21.2,80,29.88,3.0,West,16.1,21.9,0.00,Snow,Light Snow,280,2012-11-24 19:17:00
2:23 PM,26.6,21.2,80,29.87,1.5,West,13.8,21.9,0.00,Snow,Light Snow,270,2012-11-24 19:23:00
2:29 PM,24.8,21.2,86,29.88,0.8,West,12.7,21.9,0.01,Snow,Light Snow,270,2012-11-24 19:29:00
2:38 PM,24.8,21.2,86,29.88,2.0,West,13.8,25.3,0.01,Snow,Light Snow,280,2012-11-24 19:38:00
2:43 PM,24.8,21.2,86,29.88,1.8,WNW,15.0,27.6,0.01,Snow,Light Snow,290,2012-11-24 19:43:00
2:54 PM,25.0,21.9,88,29.96,0.8,West,15.0,23.0,0.01,Snow,Light Snow,260,2012-11-24 19:54:00
3:05 PM,24.8,21.2,86,29.88,2.0,WNW,15.0,28.8,0.00,Snow,Light Snow,290,2012-11-24 20:05:00
3:20 PM,24.8,19.4,80,29.88,2.0,West,19.6,31.1,0.00,Snow,Light Snow,280,2012-11-24 20:20:00
3:32 PM,24.8,19.4,80,29.89,5.0,West,15.0,24.2,0.00,Snow,Light Snow,280,2012-11-24 20:32:00
3:54 PM,25.0,19.9,81,29.98,7.0,West,19.6,28.8,0.00,Snow,Light Snow,280,2012-11-24 20:54:00
4:07 PM,24.8,19.4,80,29.89,1.8,West,24.2,33.4,0.00,Snow,Light Snow,280,2012-11-24 21:07:00
4:16 PM,24.8,19.4,80,29.90,1.5,West,17.3,26.5,0.00,Snow,Light Snow,280,2012-11-24 21:16:00
4:38 PM,24.8,19.4,80,29.90,3.0,West,20.7,31.1,0.00,Snow,Light Snow,280,2012-11-24 21:38:00
4:51 PM,24.8,21.2,86,29.91,1.5,West,18.4,26.5,0.00,Snow,Light Snow,280,2012-11-24 21:51:00
4:54 PM,25.0,21.0,85,30.00,0.8,West,18.4,26.5,0.00,Snow,Light Snow,280,2012-11-24 21:54:00
5:04 PM,24.8,21.2,86,29.92,1.0,WNW,17.3,-,0.00,Snow,Light Snow,290,2012-11-24 22:04:00
5:12 PM,24.8,21.2,86,29.92,3.0,WNW,19.6,26.5,0.00,Snow,Light Snow,290,2012-11-24 22:12:00
5:37 PM,24.8,21.2,86,29.92,2.5,West,12.7,23.0,0.00,Snow,Light Snow,280,2012-11-24 22:37:00
5:46 PM,24.8,21.2,86,29.93,1.2,WNW,16.1,25.3,0.00,Snow,Light Snow,290,2012-11-24 22:46:00
5:52 PM,24.8,21.2,86,29.93,1.5,WNW,13.8,25.3,0.00,Snow,Light Snow,290,2012-11-24 22:52:00
5:54 PM,24.1,21.0,88,30.02,1.2,WNW,18.4,24.2,0.00,Snow,Light Snow,290,2012-11-24 22:54:00
5:57 PM,24.8,21.2,86,29.93,0.8,WNW,17.3,24.2,0.00,Snow,Light Snow,290,2012-11-24 22:57:00
6:05 PM,24.8,21.2,86,29.93,1.0,West,16.1,23.0,0.00,Snow,Light Snow,280,2012-11-24 23:05:00
6:13 PM,24.8,21.2,86,29.93,3.0,West,15.0,25.3,0.00,Snow,Light Snow,280,2012-11-24 23:13:00
6:18 PM,24.8,21.2,86,29.93,2.5,West,13.8,23.0,0.00,Snow,Light Snow,280,2012-11-24 23:18:00
6:54 PM,24.1,21.0,88,30.03,2.0,West,15.0,-,0.00,Snow,Light Snow,280,2012-11-24 23:54:00
7:14 PM,24.8,19.4,80,29.93,3.0,West,13.8,-,0.00,Snow,Light Snow,280,2012-11-25 00:14:00
7:22 PM,24.8,19.4,80,29.93,4.0,WNW,16.1,21.9,0.00,Snow,Light Snow,290,2012-11-25 00:22:00
7:31 PM,24.8,19.4,80,29.94,2.5,West,17.3,-,0.00,Snow,Light Snow,280,2012-11-25 00:31:00
7:42 PM,24.8,19.4,80,29.94,2.5,WNW,18.4,-,0.00,Snow,Light Snow,290,2012-11-25 00:42:00
7:54 PM,24.1,19.9,84,30.04,4.0,West,15.0,25.3,0.00,Snow,Light Snow,280,2012-11-25 00:54:00
8:54 PM,24.1,19.0,81,30.04,4.0,WNW,13.8,-,0.00,Snow,Light Snow,290,2012-11-25 01:54:00
9:26 PM,23.0,19.4,86,29.94,2.5,WNW,12.7,26.5,0.00,Snow,Light Snow,290,2012-11-25 02:26:00
9:38 PM,23.0,17.6,80,29.94,4.0,West,16.1,26.5,0.00,Snow,Light Snow,270,2012-11-25 02:38:00
9:54 PM,23.0,18.0,81,30.04,4.0,West,18.4,24.2,0.00,Snow,Light Snow,280,2012-11-25 02:54:00
10:24 PM,23.0,17.6,80,29.94,5.0,West,9.2,-,0.00,Snow,Light Snow,270,2012-11-25 03:24:00
10:32 PM,23.0,17.6,80,29.94,6.0,West,13.8,-,0.00,Snow,Light Snow,270,2012-11-25 03:32:00
10:54 PM,24.1,17.1,75,30.02,10.0,West,11.5,19.6,0.00,,Overcast,270,2012-11-25 03:54:00
11:54 PM,23.0,16.0,74,30.02,10.0,West,12.7,-,N/A,,Overcast,270,2012-11-25 04:54:00